Time;durP1;ratioP1;P1;durP2;ratioP2;P2;SDS_P1;SDS_P2;PMS_P1;PMS_P2;Temp;Humidity;BMP_temperature;BMP_pressure;BME280_temperature;BME280_humidity;BME280_pressure;Samples;Min_cycle;Max_cycle;Signal;HPM_P1;HPM_P2
2023/03/10 00:01:35;;;;;;;21.43;13.73;;;1.50;99.90;;;;;;5094107;28;20044;-70
2023/03/10 00:04:01;;;;;;;26.60;15.33;;;1.60;99.90;;;;;;5094370;28;20040;-70
2023/03/10 00:06:31;;;;;;;22.80;14.50;;;1.60;99.90;;;;;;5092818;28;20044;-70
2023/03/10 00:08:58;;;;;;;25.63;15.30;;;1.70;99.90;;;;;;5093771;28;20123;-70
2023/03/10 00:11:24;;;;;;;23.15;14.77;;;1.60;99.90;;;;;;5093508;28;20048;-70
2023/03/10 00:13:50;;;;;;;27.20;15.02;;;1.60;99.90;;;;;;5093365;28;20059;-70
2023/03/10 00:16:25;;;;;;;23.73;14.68;;;1.60;99.90;;;;;;5094242;28;20429;-70
2023/03/10 00:18:51;;;;;;;26.35;15.32;;;1.60;99.90;;;;;;5093939;28;20040;-70
2023/03/10 00:21:23;;;;;;;24.27;15.90;;;1.60;99.90;;;;;;5076355;28;20048;-69
2023/03/10 00:23:49;;;;;;;25.52;16.23;;;1.60;99.90;;;;;;5093305;28;20048;-71
2023/03/10 00:26:16;;;;;;;24.10;14.93;;;1.60;99.90;;;;;;5092202;28;20181;-70
2023/03/10 00:28:42;;;;;;;23.95;15.00;;;1.60;99.90;;;;;;5093346;28;20043;-70
2023/03/10 00:31:14;;;;;;;22.42;14.45;;;1.60;99.90;;;;;;5093274;28;20070;-70
2023/03/10 00:33:40;;;;;;;22.77;14.32;;;1.60;99.90;;;;;;5094063;28;20094;-70
2023/03/10 00:36:06;;;;;;;21.65;14.82;;;1.60;99.90;;;;;;5093223;28;20499;-70
2023/03/10 00:38:32;;;;;;;20.65;13.43;;;1.60;99.90;;;;;;5093362;28;20052;-70
2023/03/10 00:41:05;;;;;;;18.58;12.30;;;1.70;99.90;;;;;;5093226;28;20051;-70
2023/03/10 00:43:31;;;;;;;18.67;12.48;;;1.60;99.90;;;;;;5093176;28;20090;-70
2023/03/10 00:45:57;;;;;;;18.85;12.88;;;1.60;99.90;;;;;;5096996;28;20048;-71
2023/03/10 00:48:23;;;;;;;20.17;13.30;;;1.70;99.90;;;;;;5096902;28;20056;-71
2023/03/10 00:50:49;;;;;;;20.83;14.13;;;1.70;99.90;;;;;;5096966;28;20130;-70
2023/03/10 00:53:15;;;;;;;21.63;14.23;;;1.60;99.90;;;;;;5097690;28;20282;-71
2023/03/10 00:55:41;;;;;;;18.85;12.85;;;1.70;99.90;;;;;;5096827;28;20357;-71
2023/03/10 00:58:07;;;;;;;18.57;12.63;;;1.70;99.90;;;;;;5096752;28;20086;-71
2023/03/10 01:00:33;;;;;;;18.50;12.23;;;1.70;99.90;;;;;;5096736;28;20422;-71
2023/03/10 01:02:58;;;;;;;21.47;14.63;;;1.70;99.90;;;;;;5096720;28;20551;-71
2023/03/10 01:05:25;;;;;;;21.42;14.70;;;1.70;99.90;;;;;;5096437;28;20051;-71
2023/03/10 01:07:50;;;;;;;23.77;15.85;;;1.60;99.90;;;;;;5095599;28;20044;-71
2023/03/10 01:10:17;;;;;;;22.90;15.50;;;1.70;99.90;;;;;;5097103;28;20429;-72
2023/03/10 01:12:42;;;;;;;23.85;16.38;;;1.60;99.90;;;;;;5097036;28;20101;-71
2023/03/10 01:15:10;;;;;;;25.50;17.07;;;1.60;99.90;;;;;;5096432;28;20131;-72
2023/03/10 01:17:36;;;;;;;23.83;16.17;;;1.60;99.90;;;;;;5095441;28;20075;-72
2023/03/10 01:20:06;;;;;;;23.60;16.90;;;1.70;99.90;;;;;;5097435;28;20040;-72
2023/03/10 01:22:31;;;;;;;22.42;14.90;;;1.70;99.90;;;;;;5096555;28;20642;-72
2023/03/10 01:24:57;;;;;;;24.93;17.27;;;1.70;99.90;;;;;;5096265;28;20040;-73
2023/03/10 01:27:23;;;;;;;24.43;16.80;;;1.70;99.90;;;;;;5095235;28;20055;-73
2023/03/10 01:29:49;;;;;;;23.73;16.77;;;1.70;99.90;;;;;;5078408;28;20040;-73
2023/03/10 01:32:14;;;;;;;25.50;17.67;;;1.70;99.90;;;;;;5096725;28;20447;-72
2023/03/10 01:34:40;;;;;;;27.03;18.90;;;1.70;99.90;;;;;;5095026;28;20127;-72
2023/03/10 01:37:05;;;;;;;28.17;19.63;;;1.70;99.90;;;;;;5096132;28;20099;-73
2023/03/10 01:39:32;;;;;;;28.00;18.73;;;1.60;99.90;;;;;;5095678;28;20093;-72
2023/03/10 01:41:59;;;;;;;29.23;19.70;;;1.60;99.90;;;;;;5096712;28;20055;-72
2023/03/10 01:44:25;;;;;;;29.33;19.77;;;1.70;99.90;;;;;;5095987;28;20048;-72
2023/03/10 01:46:52;;;;;;;29.73;20.27;;;1.80;99.90;;;;;;5095912;28;20044;-72
2023/03/10 01:49:37;;;;;;;29.67;21.00;;;1.80;99.90;;;;;;5095681;28;20060;-72
2023/03/10 01:52:24;;;;;;;28.17;19.95;;;1.80;99.90;;;;;;5095907;28;20054;-72
2023/03/10 01:55:00;;;;;;;30.67;21.92;;;1.80;99.90;;;;;;5095695;28;20056;-72
2023/03/10 01:57:32;;;;;;;27.58;19.95;;;1.70;99.90;;;;;;5095765;28;20048;-72
2023/03/10 01:59:59;;;;;;;28.55;19.52;;;1.80;99.90;;;;;;5095631;28;20047;-71
2023/03/10 02:02:25;;;;;;;25.00;18.70;;;1.70;99.90;;;;;;5095632;28;20119;-71
2023/03/10 02:04:53;;;;;;;23.30;17.00;;;1.80;99.90;;;;;;5096304;28;20098;-71
2023/03/10 02:07:23;;;;;;;26.13;18.65;;;1.80;99.90;;;;;;5095479;28;20549;-71
2023/03/10 02:09:50;;;;;;;26.95;18.27;;;1.80;99.90;;;;;;5095490;28;20082;-70
2023/03/10 02:12:17;;;;;;;25.20;18.05;;;1.60;99.90;;;;;;5094246;28;20040;-71
2023/03/10 02:14:46;;;;;;;23.58;16.27;;;1.70;99.90;;;;;;5095605;28;20495;-70
2023/03/10 02:17:15;;;;;;;20.00;14.40;;;1.60;99.90;;;;;;5095329;28;20086;-70
2023/03/10 02:20:03;;;;;;;22.60;15.32;;;1.60;99.90;;;;;;5095477;28;20044;-70
2023/03/10 02:22:30;;;;;;;20.75;13.98;;;1.70;99.90;;;;;;5095015;28;20048;-70
2023/03/10 02:25:18;;;;;;;22.08;14.43;;;1.60;99.90;;;;;;5095657;28;20059;-69
2023/03/10 02:27:44;;;;;;;20.50;13.50;;;1.60;99.90;;;;;;5095177;28;20105;-70
2023/03/10 02:30:30;;;;;;;18.57;11.90;;;1.70;99.90;;;;;;5095056;28;20048;-70
2023/03/10 02:33:00;;;;;;;18.95;12.95;;;1.70;99.90;;;;;;5095364;28;20476;-69
2023/03/10 02:35:26;;;;;;;20.80;13.85;;;1.60;99.90;;;;;;5095486;28;20051;-70
2023/03/10 02:37:53;;;;;;;21.63;13.48;;;1.60;99.90;;;;;;5094926;28;20044;-70
2023/03/10 02:40:31;;;;;;;22.45;14.88;;;1.60;99.90;;;;;;5094832;28;20467;-70
2023/03/10 02:42:58;;;;;;;21.92;14.60;;;1.60;99.90;;;;;;5095399;28;20044;-70
2023/03/10 02:45:29;;;;;;;23.15;15.07;;;1.50;99.90;;;;;;5094733;28;20497;-70
2023/03/10 02:47:54;;;;;;;23.50;15.38;;;1.60;99.90;;;;;;5095658;28;20073;-70
2023/03/10 02:50:21;;;;;;;24.17;15.37;;;1.60;99.90;;;;;;5095491;28;20380;-70
2023/03/10 02:52:56;;;;;;;24.92;15.05;;;1.60;99.90;;;;;;5093601;28;20055;-69
2023/03/10 02:55:22;;;;;;;25.52;16.52;;;1.50;99.90;;;;;;5095400;28;20063;-70
2023/03/10 02:57:48;;;;;;;24.03;14.90;;;1.50;99.90;;;;;;5094535;28;20040;-70
2023/03/10 03:00:14;;;;;;;25.20;15.73;;;1.50;99.90;;;;;;5093191;28;20039;-70
2023/03/10 03:02:40;;;;;;;24.95;15.27;;;1.50;99.90;;;;;;5095225;28;20105;-70
2023/03/10 03:05:06;;;;;;;26.47;16.07;;;1.50;99.90;;;;;;5094345;28;20481;-70
2023/03/10 03:07:31;;;;;;;29.13;17.42;;;1.50;99.90;;;;;;5093731;28;20109;-70
2023/03/10 03:09:57;;;;;;;25.80;16.07;;;1.50;99.90;;;;;;5094297;28;20071;-69
2023/03/10 03:12:23;;;;;;;28.30;16.50;;;1.50;99.90;;;;;;5093063;28;20044;-70
2023/03/10 03:14:49;;;;;;;27.33;16.40;;;1.50;99.90;;;;;;5094262;28;20101;-70
2023/03/10 03:17:14;;;;;;;30.80;18.03;;;1.50;99.90;;;;;;5094170;28;20073;-70
2023/03/10 03:19:40;;;;;;;33.50;18.67;;;1.50;99.90;;;;;;5093738;28;20127;-70
2023/03/10 03:22:06;;;;;;;25.17;14.98;;;1.40;99.90;;;;;;5094101;28;20067;-69
2023/03/10 03:24:32;;;;;;;24.90;15.67;;;1.60;99.90;;;;;;5093392;28;20044;-69
2023/03/10 03:26:58;;;;;;;24.17;14.87;;;1.60;99.90;;;;;;5094083;28;20055;-69
2023/03/10 03:29:24;;;;;;;23.77;15.30;;;1.40;99.90;;;;;;5092794;28;20418;-69
2023/03/10 03:31:49;;;;;;;24.13;16.00;;;1.50;99.90;;;;;;5093988;28;20286;-69
2023/03/10 03:34:15;;;;;;;26.00;16.07;;;1.40;99.90;;;;;;5093567;28;20097;-70
2023/03/10 03:36:41;;;;;;;24.40;14.40;;;1.40;99.90;;;;;;5093897;28;20087;-70
2023/03/10 03:39:07;;;;;;;23.30;14.63;;;1.50;99.90;;;;;;5093790;28;20040;-70
2023/03/10 03:41:33;;;;;;;26.57;14.83;;;1.50;99.90;;;;;;5094079;28;20126;-70
2023/03/10 03:43:58;;;;;;;23.90;15.50;;;1.40;99.90;;;;;;5093830;28;20040;-70
2023/03/10 03:46:24;;;;;;;27.50;17.00;;;1.40;99.90;;;;;;5093699;28;20047;-70
2023/03/10 03:48:50;;;;;;;22.20;15.02;;;1.30;99.90;;;;;;5094145;28;20177;-70
2023/03/10 03:51:16;;;;;;;29.07;14.67;;;1.40;99.90;;;;;;5075783;28;20433;-70
2023/03/10 03:53:42;;;;;;;23.57;14.80;;;1.30;99.90;;;;;;5092417;28;20052;-70
2023/03/10 03:56:08;;;;;;;26.50;15.83;;;1.30;99.90;;;;;;5093673;28;20044;-70
2023/03/10 03:58:33;;;;;;;28.27;18.13;;;1.30;99.90;;;;;;5094261;28;20178;-70
2023/03/10 04:00:59;;;;;;;27.67;15.40;;;1.30;99.90;;;;;;5093617;28;20395;-70
2023/03/10 04:03:25;;;;;;;28.50;18.17;;;1.30;99.90;;;;;;5093513;28;20044;-71
2023/03/10 04:05:51;;;;;;;33.23;18.67;;;1.30;99.90;;;;;;5093616;28;20048;-70
2023/03/10 04:08:17;;;;;;;33.47;18.50;;;1.30;99.90;;;;;;5093478;28;20089;-71
2023/03/10 04:10:50;;;;;;;31.53;19.77;;;1.20;99.90;;;;;;5093717;28;20040;-71
2023/03/10 04:13:15;;;;;;;31.83;18.70;;;1.20;99.90;;;;;;5092200;28;20052;-73
2023/03/10 04:15:41;;;;;;;33.03;19.23;;;1.20;99.90;;;;;;5093962;28;20044;-71
2023/03/10 04:18:07;;;;;;;31.30;19.20;;;1.30;99.90;;;;;;5093226;28;20116;-70
2023/03/10 04:20:33;;;;;;;33.95;20.10;;;1.30;99.90;;;;;;5098305;28;20040;-71
2023/03/10 04:23:00;;;;;;;34.73;20.77;;;1.30;99.90;;;;;;5097615;28;20407;-71
2023/03/10 04:25:26;;;;;;;35.63;20.58;;;1.30;99.90;;;;;;5098105;28;20051;-71
2023/03/10 04:27:52;;;;;;;35.97;20.63;;;1.20;99.90;;;;;;5096400;28;20044;-71
2023/03/10 04:30:18;;;;;;;32.23;20.30;;;1.30;99.90;;;;;;5097377;28;20285;-72
2023/03/10 04:32:44;;;;;;;33.47;20.67;;;1.30;99.90;;;;;;5097414;28;20044;-71
2023/03/10 04:35:12;;;;;;;36.03;21.43;;;1.20;99.90;;;;;;5097325;28;20044;-71
2023/03/10 04:37:38;;;;;;;30.35;18.20;;;1.20;99.90;;;;;;5097752;28;20429;-70
2023/03/10 04:40:08;;;;;;;34.43;20.47;;;1.30;99.90;;;;;;5097188;28;20040;-70
2023/03/10 04:42:35;;;;;;;32.67;19.95;;;1.30;99.90;;;;;;5097150;28;20044;-71
2023/03/10 04:45:00;;;;;;;32.42;19.25;;;1.30;99.90;;;;;;5095907;28;20048;-70
2023/03/10 04:47:26;;;;;;;33.90;20.93;;;1.30;99.90;;;;;;5096867;28;20066;-71
2023/03/10 04:49:52;;;;;;;33.87;20.90;;;1.30;99.90;;;;;;5097638;28;20051;-70
2023/03/10 04:52:17;;;;;;;30.00;18.40;;;1.30;99.90;;;;;;5097071;28;20047;-70
2023/03/10 04:54:43;;;;;;;36.30;21.33;;;1.30;99.90;;;;;;5096032;28;20055;-70
2023/03/10 04:57:09;;;;;;;37.13;21.73;;;1.30;99.90;;;;;;5096977;28;20051;-70
2023/03/10 04:59:34;;;;;;;33.40;20.47;;;1.30;99.90;;;;;;5096747;28;20047;-70
2023/03/10 05:02:00;;;;;;;36.17;21.20;;;1.30;99.90;;;;;;5096895;28;20047;-70
2023/03/10 05:04:26;;;;;;;33.60;20.87;;;1.40;99.90;;;;;;5097323;28;20040;-70
2023/03/10 05:06:52;;;;;;;37.80;21.43;;;1.30;99.90;;;;;;5096462;28;20066;-70
2023/03/10 05:09:18;;;;;;;37.50;21.60;;;1.20;99.90;;;;;;5096748;28;20051;-70
2023/03/10 05:11:44;;;;;;;40.58;22.17;;;1.20;99.90;;;;;;5096667;28;20052;-70
2023/03/10 05:14:11;;;;;;;37.88;22.38;;;1.20;99.90;;;;;;5096971;28;20384;-71
2023/03/10 05:16:37;;;;;;;42.90;21.88;;;1.00;99.90;;;;;;5096586;28;20302;-71
2023/03/10 05:19:03;;;;;;;48.10;24.17;;;1.00;99.90;;;;;;5095779;28;20556;-72
2023/03/10 05:21:28;;;;;;;51.13;25.03;;;1.00;99.90;;;;;;5095229;28;20119;-72
2023/03/10 05:23:54;;;;;;;42.73;23.17;;;1.00;99.90;;;;;;5078395;28;20056;-72
2023/03/10 05:26:20;;;;;;;48.40;23.87;;;1.00;99.90;;;;;;5096457;28;20083;-72
2023/03/10 05:28:45;;;;;;;41.07;21.53;;;1.00;99.90;;;;;;5096332;28;20484;-72
2023/03/10 05:31:14;;;;;;;41.17;22.40;;;1.00;99.90;;;;;;5096483;28;20052;-72
2023/03/10 05:33:40;;;;;;;47.60;23.92;;;1.10;99.90;;;;;;5097061;28;20043;-73
2023/03/10 05:36:08;;;;;;;51.53;27.73;;;1.10;99.90;;;;;;5096154;28;20089;-73
2023/03/10 05:38:34;;;;;;;52.50;26.77;;;1.10;99.90;;;;;;5096054;28;20097;-73
2023/03/10 05:41:00;;;;;;;60.15;27.17;;;1.00;99.90;;;;;;5096097;28;20044;-74
2023/03/10 05:43:26;;;;;;;56.65;26.67;;;1.00;99.90;;;;;;5095695;28;20491;-74
2023/03/10 05:45:57;;;;;;;65.07;27.67;;;1.00;99.90;;;;;;5095037;28;20059;-74
2023/03/10 05:48:23;;;;;;;64.88;28.48;;;1.00;99.90;;;;;;5095804;28;20066;-73
2023/03/10 05:51:00;;;;;;;74.20;30.40;;;1.00;99.90;;;;;;5095875;28;20140;-74
2023/03/10 05:53:27;;;;;;;73.47;30.77;;;0.90;99.90;;;;;;5096354;28;20036;-74
2023/03/10 05:55:53;;;;;;;74.22;31.30;;;1.00;99.90;;;;;;5095388;28;20503;-74
2023/03/10 05:58:19;;;;;;;87.20;32.95;;;1.10;99.90;;;;;;5095677;28;20108;-74
2023/03/10 06:00:45;;;;;;;67.43;29.90;;;0.90;99.90;;;;;;5095535;28;20480;-74
2023/03/10 06:03:11;;;;;;;71.30;33.00;;;1.00;99.90;;;;;;5095591;28;20087;-75
2023/03/10 06:05:37;;;;;;;75.67;33.47;;;1.00;99.90;;;;;;5094420;28;20040;-74
2023/03/10 06:08:02;;;;;;;86.23;36.03;;;1.00;99.90;;;;;;5096298;28;20056;-74
2023/03/10 06:10:28;;;;;;;79.00;34.03;;;1.00;99.90;;;;;;5095461;28;20033;-74
2023/03/10 06:12:54;;;;;;;81.53;34.57;;;0.90;99.90;;;;;;5095669;28;20051;-74
2023/03/10 06:15:20;;;;;;;88.13;37.23;;;0.90;99.90;;;;;;5095291;28;20055;-74
2023/03/10 06:17:46;;;;;;;68.53;32.25;;;0.90;99.90;;;;;;5095310;28;20084;-75
2023/03/10 06:20:12;;;;;;;68.63;33.37;;;1.00;99.90;;;;;;5094026;28;20083;-75
2023/03/10 06:22:38;;;;;;;68.88;31.90;;;1.00;99.90;;;;;;5095221;28;20047;-74
2023/03/10 06:25:07;;;;;;;71.63;32.87;;;1.00;99.90;;;;;;5095266;28;20483;-74
2023/03/10 06:27:33;;;;;;;71.63;30.65;;;1.00;99.90;;;;;;5094425;28;20044;-74
2023/03/10 06:29:59;;;;;;;55.30;29.00;;;1.00;99.90;;;;;;5095116;28;20039;-75
2023/03/10 06:32:25;;;;;;;59.53;28.83;;;1.00;99.90;;;;;;5095059;28;20098;-75
2023/03/10 06:34:50;;;;;;;51.37;26.87;;;1.00;99.90;;;;;;5095199;28;20288;-74
2023/03/10 06:37:16;;;;;;;54.23;27.77;;;1.10;99.90;;;;;;5094829;28;20123;-74
2023/03/10 06:39:42;;;;;;;54.30;26.10;;;1.10;99.90;;;;;;5093709;28;20048;-74
2023/03/10 06:42:08;;;;;;;46.27;24.93;;;1.10;99.90;;;;;;5093025;28;20430;-74
2023/03/10 06:44:34;;;;;;;51.33;26.33;;;1.10;99.90;;;;;;5093551;28;20097;-74
2023/03/10 06:47:03;;;;;;;45.72;23.67;;;1.20;99.90;;;;;;5093676;28;20109;-74
2023/03/10 06:49:31;;;;;;;49.72;23.83;;;1.10;99.90;;;;;;5093282;28;20083;-74
2023/03/10 06:51:57;;;;;;;41.88;21.55;;;1.10;99.90;;;;;;5093424;28;20558;-74
2023/03/10 06:54:23;;;;;;;39.80;21.92;;;1.10;99.90;;;;;;5095143;28;20113;-73
2023/03/10 06:56:49;;;;;;;36.53;21.87;;;1.20;99.90;;;;;;5094831;28;20081;-73
2023/03/10 06:59:15;;;;;;;40.95;23.08;;;1.20;99.90;;;;;;5094468;28;20055;-73
2023/03/10 07:01:41;;;;;;;39.88;21.65;;;1.20;99.90;;;;;;5093514;28;20494;-73
2023/03/10 07:04:09;;;;;;;34.67;20.08;;;1.20;99.90;;;;;;5094434;28;20052;-73
2023/03/10 07:06:35;;;;;;;38.88;21.80;;;1.10;99.90;;;;;;5094432;28;20043;-73
2023/03/10 07:09:00;;;;;;;34.07;18.97;;;1.20;99.90;;;;;;5094162;28;20056;-74
2023/03/10 07:11:26;;;;;;;34.47;19.90;;;1.20;99.90;;;;;;5094357;28;20044;-74
2023/03/10 07:13:53;;;;;;;33.65;19.60;;;1.20;99.90;;;;;;5094779;28;20059;-74
2023/03/10 07:16:19;;;;;;;34.40;19.48;;;1.20;99.90;;;;;;5094285;28;20392;-74
2023/03/10 07:18:45;;;;;;;36.78;21.98;;;1.20;99.90;;;;;;5094096;28;20105;-74
2023/03/10 07:21:15;;;;;;;37.55;21.90;;;1.10;99.90;;;;;;5094241;28;20044;-74
2023/03/10 07:23:41;;;;;;;37.33;21.38;;;1.20;99.90;;;;;;5094067;28;20050;-75
2023/03/10 07:26:07;;;;;;;38.23;21.10;;;1.20;99.90;;;;;;5092865;28;20390;-74
2023/03/10 07:28:35;;;;;;;37.08;19.88;;;1.20;99.90;;;;;;5093663;28;20487;-75
2023/03/10 07:31:03;;;;;;;42.67;21.92;;;1.30;99.90;;;;;;5092977;28;20560;-75
2023/03/10 07:33:29;;;;;;;39.65;21.25;;;1.20;99.90;;;;;;5093958;28;20431;-75
2023/03/10 07:35:55;;;;;;;38.67;20.53;;;1.30;99.90;;;;;;5076081;28;20347;-74
2023/03/10 07:38:20;;;;;;;36.77;20.50;;;1.30;99.90;;;;;;5093508;28;20044;-74
2023/03/10 07:40:46;;;;;;;41.37;22.00;;;1.20;99.90;;;;;;5092556;28;20082;-75
2023/03/10 07:43:12;;;;;;;39.17;22.20;;;1.20;99.90;;;;;;5093812;28;20383;-75
2023/03/10 07:45:37;;;;;;;42.10;21.93;;;1.10;99.90;;;;;;5092651;28;20044;-74
2023/03/10 07:48:03;;;;;;;46.13;22.67;;;1.20;99.90;;;;;;5093645;28;20452;-75
2023/03/10 07:50:29;;;;;;;40.08;22.58;;;1.20;99.90;;;;;;5094044;28;20067;-75
2023/03/10 07:52:55;;;;;;;44.17;24.23;;;1.20;99.90;;;;;;5093590;28;20403;-75
2023/03/10 07:55:21;;;;;;;44.97;23.90;;;1.30;99.90;;;;;;5094196;28;20044;-74
2023/03/10 07:57:47;;;;;;;45.22;23.58;;;1.20;99.90;;;;;;5093619;28;20270;-74
2023/03/10 08:00:14;;;;;;;43.63;23.43;;;1.40;99.90;;;;;;5093602;28;20062;-77
2023/03/10 08:02:40;;;;;;;42.47;23.23;;;1.30;99.90;;;;;;5093344;28;20448;-77
2023/03/10 08:05:07;;;;;;;40.17;20.83;;;1.40;99.90;;;;;;5094079;28;20365;-76
2023/03/10 08:07:33;;;;;;;41.20;23.13;;;1.30;99.90;;;;;;5093561;28;20051;-74
2023/03/10 08:09:58;;;;;;;47.33;25.20;;;1.40;99.90;;;;;;5094044;28;20119;-75
2023/03/10 08:12:24;;;;;;;44.13;23.60;;;1.30;99.90;;;;;;5094123;28;20044;-74
2023/03/10 08:14:51;;;;;;;43.23;23.30;;;1.30;99.90;;;;;;5092253;28;20553;-73
2023/03/10 08:17:18;;;;;;;43.92;23.38;;;1.30;99.90;;;;;;5093448;28;20044;-73
2023/03/10 08:19:44;;;;;;;39.15;21.17;;;1.40;99.90;;;;;;5093046;28;20404;-74
2023/03/10 08:22:10;;;;;;;36.83;22.17;;;1.40;99.90;;;;;;5094239;28;20157;-75
2023/03/10 08:24:37;;;;;;;35.03;19.73;;;1.40;99.90;;;;;;5093440;28;20551;-74
2023/03/10 08:27:03;;;;;;;37.75;22.05;;;1.40;99.90;;;;;;5093325;28;20047;-74
2023/03/10 08:29:29;;;;;;;37.20;21.25;;;1.40;99.90;;;;;;5093306;28;20044;-74
2023/03/10 08:31:54;;;;;;;41.87;22.63;;;1.40;99.90;;;;;;5093290;28;20245;-74
2023/03/10 08:34:20;;;;;;;38.07;21.33;;;1.40;99.90;;;;;;5093302;28;20140;-74
2023/03/10 08:36:46;;;;;;;44.10;23.80;;;1.40;99.90;;;;;;5094026;28;20421;-75
2023/03/10 08:39:12;;;;;;;40.07;22.37;;;1.30;99.90;;;;;;5092884;28;20438;-75
2023/03/10 08:41:43;;;;;;;42.03;22.13;;;1.40;99.90;;;;;;5093759;28;20377;-75
2023/03/10 08:44:13;;;;;;;35.60;21.60;;;1.40;99.90;;;;;;5091960;28;20056;-75
2023/03/10 08:46:41;;;;;;;37.65;21.77;;;1.40;99.90;;;;;;5094065;28;20097;-75
2023/03/10 08:49:08;;;;;;;41.28;22.10;;;1.50;99.90;;;;;;5093095;28;20078;-76
2023/03/10 08:51:34;;;;;;;39.72;21.55;;;1.40;99.90;;;;;;5093789;28;20051;-75
2023/03/10 08:54:01;;;;;;;41.93;22.93;;;1.40;99.90;;;;;;5093137;28;20044;-76
2023/03/10 08:56:27;;;;;;;39.58;23.13;;;1.40;99.90;;;;;;5091926;28;20550;-74
2023/03/10 08:58:57;;;;;;;33.92;20.35;;;1.40;99.90;;;;;;5093018;28;20044;-73
2023/03/10 09:01:24;;;;;;;42.05;22.05;;;1.50;99.90;;;;;;5094026;28;20048;-74
2023/03/10 09:03:49;;;;;;;40.25;22.60;;;1.40;99.90;;;;;;5092955;28;20101;-74
2023/03/10 09:06:15;;;;;;;41.43;22.37;;;1.50;99.90;;;;;;5095769;28;20044;-74
2023/03/10 09:08:42;;;;;;;38.17;21.63;;;1.40;99.90;;;;;;5096798;28;20108;-74
2023/03/10 09:11:13;;;;;;;35.97;22.02;;;1.40;99.90;;;;;;5096749;28;20055;-73
2023/03/10 09:13:38;;;;;;;34.13;20.70;;;1.40;99.90;;;;;;5096039;28;20357;-73
2023/03/10 09:16:04;;;;;;;38.37;23.87;;;1.50;99.90;;;;;;5096651;28;20047;-73
2023/03/10 09:18:30;;;;;;;37.03;22.77;;;1.40;99.90;;;;;;5096554;28;20058;-72
2023/03/10 09:20:56;;;;;;;41.00;23.63;;;1.40;99.90;;;;;;5096455;28;20290;-75
2023/03/10 09:23:22;;;;;;;37.35;22.35;;;1.50;99.90;;;;;;5095186;28;20077;-72
2023/03/10 09:25:48;;;;;;;41.80;23.70;;;1.40;99.90;;;;;;5096078;28;20048;-75
2023/03/10 09:28:13;;;;;;;37.47;22.10;;;1.50;99.90;;;;;;5096462;28;20459;-75
2023/03/10 09:30:41;;;;;;;34.50;21.53;;;1.50;99.90;;;;;;5095808;28;20484;-76
2023/03/10 09:33:16;;;;;;;42.45;22.30;;;1.50;99.90;;;;;;5095438;28;20456;-75
2023/03/10 09:35:42;;;;;;;36.58;21.73;;;1.40;99.90;;;;;;5096336;28;20048;-74
2023/03/10 09:38:07;;;;;;;31.13;21.47;;;1.50;99.90;;;;;;5096136;28;20050;-75
2023/03/10 09:40:35;;;;;;;31.87;19.83;;;1.40;99.90;;;;;;5096108;28;20044;-73
2023/03/10 09:43:04;;;;;;;31.85;21.45;;;1.40;99.90;;;;;;5095656;28;20052;-75
2023/03/10 09:45:42;;;;;;;39.67;24.45;;;1.40;99.90;;;;;;5095980;28;20369;-73
2023/03/10 09:48:48;;;;;;;41.28;25.63;;;1.50;99.90;;;;;;5095855;28;20067;-74
2023/03/10 09:51:17;;;;;;;;;;;1.40;99.90;;;;;;5094820;28;20059;-74
2023/03/10 09:54:06;;;;;;;32.83;20.17;;;1.30;99.90;;;;;;5095969;28;20290;-75
2023/03/10 09:56:34;;;;;;;38.00;22.73;;;1.30;99.90;;;;;;5095899;28;20087;-75
2023/03/10 09:59:12;;;;;;;34.05;21.10;;;1.30;99.90;;;;;;5095642;28;20050;-74
2023/03/10 10:01:43;;;;;;;34.17;21.00;;;1.20;99.90;;;;;;5096303;28;20063;-72
2023/03/10 10:04:14;;;;;;;35.60;21.83;;;1.30;99.90;;;;;;5096523;28;20109;-75
2023/03/10 10:06:43;;;;;;;34.88;20.52;;;1.30;99.90;;;;;;5095684;28;20044;-75
2023/03/10 10:09:41;;;;;;;36.83;20.80;;;1.20;99.90;;;;;;5095555;28;20039;-76
2023/03/10 10:12:22;;;;;;;33.65;19.00;;;1.20;99.90;;;;;;5095808;28;20058;-74
2023/03/10 10:14:51;;;;;;;37.22;21.17;;;1.20;99.90;;;;;;5095217;28;20488;-75
2023/03/10 10:17:17;;;;;;;37.65;21.13;;;1.20;99.90;;;;;;5095276;28;20074;-76
2023/03/10 10:19:46;;;;;;;36.80;20.50;;;1.20;99.90;;;;;;5095857;28;20040;-74
2023/03/10 10:22:29;;;;;;;33.65;19.73;;;1.20;99.90;;;;;;5095564;28;20044;-78
2023/03/10 10:24:58;;;;;;;38.35;21.15;;;1.30;99.90;;;;;;5095344;28;20056;-74
2023/03/10 10:27:24;;;;;;;37.33;20.60;;;1.20;99.90;;;;;;5095058;28;20091;-74
2023/03/10 10:29:50;;;;;;;32.77;20.13;;;1.20;99.90;;;;;;5095724;28;20496;-74
2023/03/10 10:32:17;;;;;;;34.97;20.40;;;1.20;99.90;;;;;;5094047;28;20044;-79
2023/03/10 10:34:46;;;;;;;34.92;19.33;;;1.20;99.90;;;;;;5095069;28;20048;-77
2023/03/10 10:37:41;;;;;;;37.03;21.40;;;1.20;99.90;;;;;;5095039;28;20044;-74
2023/03/10 10:40:25;;;;;;;38.47;21.88;;;1.20;99.90;;;;;;5093372;28;20055;-78
2023/03/10 10:42:53;;;;;;;39.35;20.40;;;1.10;99.90;;;;;;5094924;28;20050;-78
2023/03/10 10:45:34;;;;;;;37.38;20.98;;;1.20;99.90;;;;;;5093984;28;20048;-77
2023/03/10 10:48:01;;;;;;;41.47;23.48;;;1.20;99.90;;;;;;5094473;28;20080;-76
2023/03/10 10:50:32;;;;;;;33.55;22.20;;;1.20;99.90;;;;;;5093773;28;20051;-78
2023/03/10 10:53:17;;;;;;;41.53;23.70;;;1.30;99.90;;;;;;5094776;28;20098;-77
2023/03/10 10:55:45;;;;;;;31.05;19.48;;;1.30;99.90;;;;;;5094773;28;20127;-77
2023/03/10 10:58:27;;;;;;;41.53;24.40;;;1.20;99.90;;;;;;5094654;28;20101;-79
2023/03/10 11:00:55;;;;;;;41.03;23.38;;;1.20;99.90;;;;;;5094632;28;20052;-77
2023/03/10 11:03:34;;;;;;;41.13;24.00;;;1.30;99.90;;;;;;5095119;28;20079;-77
2023/03/10 11:06:01;;;;;;;39.42;24.65;;;1.30;99.90;;;;;;5094538;28;20047;-76
2023/03/10 11:08:33;;;;;;;42.50;24.25;;;1.30;99.90;;;;;;5094467;28;20529;-75
2023/03/10 11:11:10;;;;;;;37.78;24.23;;;1.30;99.90;;;;;;5094742;28;20066;-75
2023/03/10 11:14:06;;;;;;;33.10;19.55;;;1.30;99.90;;;;;;5094418;28;20051;-74
2023/03/10 11:16:48;;;;;;;;;;;1.40;99.90;;;;;;5094861;28;20135;-76
2023/03/10 11:19:19;;;;;;;36.33;21.45;;;1.40;99.90;;;;;;5094277;28;19924;-76
2023/03/10 11:21:50;;;;;;;41.28;24.02;;;1.40;99.90;;;;;;5094794;28;20062;-74
2023/03/10 11:24:32;;;;;;;43.70;24.42;;;1.40;99.90;;;;;;5095007;28;20040;-75
2023/03/10 11:27:14;;;;;;;40.72;22.25;;;1.40;99.90;;;;;;5094201;28;20058;-76
2023/03/10 11:30:03;;;;;;;42.22;24.55;;;1.40;99.90;;;;;;5094058;28;20480;-76
2023/03/10 11:32:45;;;;;;;42.58;23.52;;;1.50;99.90;;;;;;5094290;28;20369;-76
2023/03/10 11:35:26;;;;;;;39.60;22.40;;;1.50;99.90;;;;;;5094081;28;20165;-74
2023/03/10 11:38:29;;;;;;;29.60;18.60;;;1.50;99.90;;;;;;5094105;28;20040;-76
2023/03/10 11:41:00;;;;;;;40.53;22.23;;;1.60;99.90;;;;;;5094127;28;20051;-72
2023/03/10 11:43:44;;;;;;;36.72;22.50;;;1.60;99.90;;;;;;5093935;28;20062;-72
2023/03/10 11:46:23;;;;;;;40.00;22.65;;;1.70;99.90;;;;;;5094628;28;20101;-73
2023/03/10 11:49:13;;;;;;;43.72;24.45;;;1.70;99.90;;;;;;5092511;28;20060;-74
2023/03/10 11:52:03;;;;;;;45.40;25.13;;;1.60;99.90;;;;;;5093659;28;20055;-74
2023/03/10 11:54:31;;;;;;;38.28;23.55;;;1.60;99.90;;;;;;5093396;28;20048;-77
2023/03/10 11:57:01;;;;;;;37.50;24.40;;;1.80;99.90;;;;;;5093327;28;20052;-70
2023/03/10 11:59:30;;;;;;;38.90;25.92;;;1.70;99.90;;;;;;5093199;28;20036;-72
2023/03/10 12:02:34;;;;;;;45.03;26.25;;;1.70;99.90;;;;;;5093371;28;20066;-72
2023/03/10 12:05:20;;;;;;;44.67;26.50;;;1.70;99.90;;;;;;5093809;28;20083;-71
2023/03/10 12:07:50;;;;;;;45.15;27.38;;;1.70;99.90;;;;;;5092490;28;20480;-72
2023/03/10 12:10:20;;;;;;;41.85;25.23;;;1.80;99.90;;;;;;5093594;28;20050;-72
2023/03/10 12:12:47;;;;;;;40.30;25.33;;;1.80;99.90;;;;;;5093581;28;20040;-72
2023/03/10 12:15:23;;;;;;;41.13;26.08;;;1.70;99.90;;;;;;5093529;28;20048;-73
2023/03/10 12:17:50;;;;;;;;;;;1.80;99.90;;;;;;5093911;28;20048;-72
2023/03/10 12:20:16;;;;;;;33.78;22.30;;;1.80;99.90;;;;;;5092212;28;19927;-73
2023/03/10 12:22:46;;;;;;;42.90;25.85;;;1.80;99.90;;;;;;5093483;28;20109;-75
2023/03/10 12:25:27;;;;;;;37.65;24.00;;;1.80;99.90;;;;;;5093387;28;20468;-73
2023/03/10 12:28:23;;;;;;;40.95;25.88;;;1.80;99.90;;;;;;5093446;28;20048;-77
2023/03/10 12:31:01;;;;;;;40.75;26.08;;;1.80;99.90;;;;;;5092045;28;20054;-73
2023/03/10 12:33:33;;;;;;;40.85;26.10;;;1.80;99.90;;;;;;5091267;28;20044;-74
2023/03/10 12:36:14;;;;;;;37.80;23.98;;;1.70;99.90;;;;;;5089375;28;20450;-74
2023/03/10 12:38:52;;;;;;;40.03;24.38;;;1.80;99.90;;;;;;5091663;28;20064;-75
2023/03/10 12:41:27;;;;;;;42.17;25.65;;;1.80;99.90;;;;;;5096164;28;20491;-74
2023/03/10 12:44:26;;;;;;;40.10;23.92;;;1.80;99.90;;;;;;5097595;28;20052;-74
2023/03/10 12:47:09;;;;;;;42.92;26.45;;;1.80;99.90;;;;;;5097318;28;20044;-74
2023/03/10 12:49:54;;;;;;;39.40;24.20;;;1.80;99.90;;;;;;5097286;28;20491;-75